Katav-Ivanovsk, Russia
Current Conditions -  °F | °C
As of 10:30 AM on Sunday 26 Oct 2014 (Local Time) from UWUU Reporting Station
Scattered Clouds Scattered Clouds  
Wind Chill: -2°   Ceiling: Unl
Heat Index: 12°   Visibility: 6mi
Dew Point:   Wind: 11mph
Humidity: 85%   Direction: 290°WNW
Pressure: 30.36"   Gusts: NA
Location:  54.75°N, 58.2°E
Report Text: UWUU 260430Z 29005MPS 9999 SCT023 M11/M13 Q1028 320///60 TEMPO1000 SHSN BKN010CB RMK QFE759/1012
Loading
Personal Weather Stations






























Interactive Weather Map
Tropical Storm Tracking
New forecast layout! Learn more

10-Day Weather Forecast

Advertisements
Track Severe Weather on mobile